Flight Number: EUR3050 Duration: 11:00
Departure: Dublin Airport (EIDW) at 07:00 Distance: 4515 Nm
Arrival: San Diego Int'l Airport (KSAN) at 18:00 Equipment: B777

Weather Information
Dublin Airport, Ireland (EIDW) 53-26N 006-15W 85M Feb 19, 2018 - 02:30 AM EST / 2018.02.19 0730 UTC
Wind: from the W (270 degrees) at 10 MPH (9 KT):0
Visibility: 4 mile(s):0
Sky conditions: mostly cloudy Weather: light drizzle Temperature: 48 F (9 C) Dew Point: 48 F (9 C) Relative Humidity: 100% Pressure (altimeter): 30.06 in. Hg (1018 hPa)
ob: EIDW 190730Z 27009KT 8000 -DZ FEW003 BKN006 09/09 Q1018 NOSIG cycle: 7
Sunrise: 07:37 Sunset: 17:39 (UTC)

SAN DIEGO INTERNATIONAL \LINDBERGH FLD, CA, United States (KSAN) 32-44N 117-11W 12M Feb 19, 2018 - 02:22 AM EST / 2018.02.19 0722 UTC
Wind: from the WSW (240 degrees) at 12 MPH (10 KT):0
Visibility: 10 mile(s):0
Sky conditions: mostly cloudy Temperature: 59.0 F (15.0 C) Dew Point: 51.1 F (10.6 C) Relative Humidity: 74% Pressure (altimeter): 29.93 in. Hg (1013 hPa)
ob: KSAN 190722Z 24010KT 10SM SCT020 BKN034 15/11 A2993 RMK AO2 T01500106 cycle: 7
Sunrise: 14:29 Sunset: 01:35 (UTC)

TAF:2018/02/19 06:33 TAF KSAN 190530Z 1906/2012 24010KT P6SM BKN025 FM190700 25010KT 6SM -SHRA BKN020 OVC035 FM191000 25015G25KT P6SM VCSH BKN025 BKN035 FM191600 29022G32KT P6SM BKN035 FM200000 29010KT P6SM SCT035 FM200600 VRB04KT P6SM SKC

This route has never been flown.

Route map